高雄終端管制區 - 高雄雷達席

METAR RCKH 301500Z 04003KT 020V110 9999 FEW015 16/10 Q1019 NOSIG RMK A3010=

站台狀態:Offline
最後更新:2023-01-30 23:00:02